sensor_id;sensor_type;location;lat;lon;timestamp;P1;durP1;ratioP1;P2;durP2;ratioP2
75746;SDS011;70632;52.232;21.038;2023-08-21T00:01:14;21.73;;;17.15;;
75746;SDS011;70632;52.232;21.038;2023-08-21T00:03:40;18.67;;;15.25;;
75746;SDS011;70632;52.232;21.038;2023-08-21T00:06:06;26.23;;;15.82;;
75746;SDS011;70632;52.232;21.038;2023-08-21T00:08:31;21.70;;;16.13;;
75746;SDS011;70632;52.232;21.038;2023-08-21T00:10:57;21.40;;;15.38;;
75746;SDS011;70632;52.232;21.038;2023-08-21T00:13:23;20.90;;;16.10;;
75746;SDS011;70632;52.232;21.038;2023-08-21T00:15:49;20.63;;;15.23;;
75746;SDS011;70632;52.232;21.038;2023-08-21T00:18:14;22.52;;;17.58;;
75746;SDS011;70632;52.232;21.038;2023-08-21T00:20:40;22.27;;;17.38;;
75746;SDS011;70632;52.232;21.038;2023-08-21T00:23:07;19.63;;;15.23;;
75746;SDS011;70632;52.232;21.038;2023-08-21T00:25:34;22.98;;;16.23;;
75746;SDS011;70632;52.232;21.038;2023-08-21T00:28:00;24.00;;;16.50;;
75746;SDS011;70632;52.232;21.038;2023-08-21T00:30:26;23.80;;;16.92;;
75746;SDS011;70632;52.232;21.038;2023-08-21T00:32:51;26.58;;;17.67;;
75746;SDS011;70632;52.232;21.038;2023-08-21T00:35:17;21.83;;;17.23;;
75746;SDS011;70632;52.232;21.038;2023-08-21T00:37:43;22.15;;;16.35;;
75746;SDS011;70632;52.232;21.038;2023-08-21T00:40:09;21.10;;;17.20;;
75746;SDS011;70632;52.232;21.038;2023-08-21T00:42:35;21.85;;;17.08;;
75746;SDS011;70632;52.232;21.038;2023-08-21T00:45:00;22.58;;;16.90;;
75746;SDS011;70632;52.232;21.038;2023-08-21T00:47:26;23.58;;;17.55;;
75746;SDS011;70632;52.232;21.038;2023-08-21T00:49:52;23.30;;;16.30;;
75746;SDS011;70632;52.232;21.038;2023-08-21T00:52:18;22.85;;;16.65;;
75746;SDS011;70632;52.232;21.038;2023-08-21T00:54:44;22.50;;;16.25;;
75746;SDS011;70632;52.232;21.038;2023-08-21T00:57:10;21.83;;;16.98;;
75746;SDS011;70632;52.232;21.038;2023-08-21T00:59:36;26.38;;;18.40;;
75746;SDS011;70632;52.232;21.038;2023-08-21T01:02:03;22.98;;;17.40;;
75746;SDS011;70632;52.232;21.038;2023-08-21T01:04:29;22.77;;;16.85;;
75746;SDS011;70632;52.232;21.038;2023-08-21T01:06:54;21.90;;;17.20;;
75746;SDS011;70632;52.232;21.038;2023-08-21T01:14:51;24.90;;;16.83;;
75746;SDS011;70632;52.232;21.038;2023-08-21T01:17:23;22.65;;;16.75;;
75746;SDS011;70632;52.232;21.038;2023-08-21T01:19:49;21.05;;;16.63;;
75746;SDS011;70632;52.232;21.038;2023-08-21T01:22:17;24.73;;;17.00;;
75746;SDS011;70632;52.232;21.038;2023-08-21T01:24:43;27.60;;;18.00;;
75746;SDS011;70632;52.232;21.038;2023-08-21T01:27:09;25.35;;;17.92;;
75746;SDS011;70632;52.232;21.038;2023-08-21T01:29:36;22.95;;;17.67;;
75746;SDS011;70632;52.232;21.038;2023-08-21T01:35:03;23.30;;;17.27;;
75746;SDS011;70632;52.232;21.038;2023-08-21T01:37:30;21.95;;;17.27;;
75746;SDS011;70632;52.232;21.038;2023-08-21T01:39:59;21.85;;;17.73;;
75746;SDS011;70632;52.232;21.038;2023-08-21T01:42:24;22.77;;;17.83;;
75746;SDS011;70632;52.232;21.038;2023-08-21T01:44:50;24.73;;;17.38;;
75746;SDS011;70632;52.232;21.038;2023-08-21T01:47:16;23.58;;;17.13;;
75746;SDS011;70632;52.232;21.038;2023-08-21T01:49:42;22.95;;;17.73;;
75746;SDS011;70632;52.232;21.038;2023-08-21T01:52:07;25.08;;;18.98;;
75746;SDS011;70632;52.232;21.038;2023-08-21T01:54:33;24.33;;;17.90;;
75746;SDS011;70632;52.232;21.038;2023-08-21T01:56:58;24.90;;;17.90;;
75746;SDS011;70632;52.232;21.038;2023-08-21T01:59:24;22.58;;;18.77;;
75746;SDS011;70632;52.232;21.038;2023-08-21T02:01:50;21.38;;;17.00;;
75746;SDS011;70632;52.232;21.038;2023-08-21T02:04:16;24.15;;;19.08;;
75746;SDS011;70632;52.232;21.038;2023-08-21T02:06:41;21.83;;;17.60;;
75746;SDS011;70632;52.232;21.038;2023-08-21T02:09:09;34.72;;;19.58;;
75746;SDS011;70632;52.232;21.038;2023-08-21T02:11:35;27.35;;;17.05;;
75746;SDS011;70632;52.232;21.038;2023-08-21T02:14:01;27.42;;;17.95;;
75746;SDS011;70632;52.232;21.038;2023-08-21T02:16:27;21.33;;;17.75;;
75746;SDS011;70632;52.232;21.038;2023-08-21T02:18:53;24.70;;;18.52;;
75746;SDS011;70632;52.232;21.038;2023-08-21T02:21:19;23.40;;;18.17;;
75746;SDS011;70632;52.232;21.038;2023-08-21T02:23:45;22.15;;;17.95;;
75746;SDS011;70632;52.232;21.038;2023-08-21T02:26:11;24.45;;;18.05;;
75746;SDS011;70632;52.232;21.038;2023-08-21T02:28:37;22.85;;;18.13;;
75746;SDS011;70632;52.232;21.038;2023-08-21T02:31:02;23.88;;;18.38;;
75746;SDS011;70632;52.232;21.038;2023-08-21T02:33:28;21.10;;;18.60;;
75746;SDS011;70632;52.232;21.038;2023-08-21T02:35:54;24.35;;;17.58;;
75746;SDS011;70632;52.232;21.038;2023-08-21T02:38:19;26.98;;;18.88;;
75746;SDS011;70632;52.232;21.038;2023-08-21T02:40:45;23.02;;;18.10;;
75746;SDS011;70632;52.232;21.038;2023-08-21T02:43:11;27.80;;;18.98;;
75746;SDS011;70632;52.232;21.038;2023-08-21T02:45:36;23.77;;;20.45;;
75746;SDS011;70632;52.232;21.038;2023-08-21T02:48:02;25.70;;;20.30;;
75746;SDS011;70632;52.232;21.038;2023-08-21T02:50:28;22.20;;;19.25;;
75746;SDS011;70632;52.232;21.038;2023-08-21T02:52:54;25.75;;;19.13;;
75746;SDS011;70632;52.232;21.038;2023-08-21T02:55:19;22.90;;;18.33;;
75746;SDS011;70632;52.232;21.038;2023-08-21T02:57:46;27.08;;;18.60;;
75746;SDS011;70632;52.232;21.038;2023-08-21T03:00:12;25.60;;;18.98;;
75746;SDS011;70632;52.232;21.038;2023-08-21T03:02:38;25.63;;;18.92;;
75746;SDS011;70632;52.232;21.038;2023-08-21T03:05:04;29.08;;;18.65;;
75746;SDS011;70632;52.232;21.038;2023-08-21T03:07:30;23.80;;;18.67;;
75746;SDS011;70632;52.232;21.038;2023-08-21T03:09:55;26.17;;;19.02;;
75746;SDS011;70632;52.232;21.038;2023-08-21T03:12:21;25.92;;;20.38;;
75746;SDS011;70632;52.232;21.038;2023-08-21T03:14:47;23.52;;;19.38;;
75746;SDS011;70632;52.232;21.038;2023-08-21T03:17:12;27.67;;;19.73;;
75746;SDS011;70632;52.232;21.038;2023-08-21T03:19:38;27.75;;;19.55;;
75746;SDS011;70632;52.232;21.038;2023-08-21T03:22:04;25.05;;;19.90;;
75746;SDS011;70632;52.232;21.038;2023-08-21T03:24:30;24.65;;;19.45;;
75746;SDS011;70632;52.232;21.038;2023-08-21T03:26:56;24.30;;;19.52;;
75746;SDS011;70632;52.232;21.038;2023-08-21T03:29:21;30.65;;;21.45;;
75746;SDS011;70632;52.232;21.038;2023-08-21T03:31:52;27.83;;;20.23;;
75746;SDS011;70632;52.232;21.038;2023-08-21T03:34:18;24.58;;;20.33;;
75746;SDS011;70632;52.232;21.038;2023-08-21T03:36:44;27.52;;;19.73;;
75746;SDS011;70632;52.232;21.038;2023-08-21T03:39:09;28.70;;;20.92;;
75746;SDS011;70632;52.232;21.038;2023-08-21T03:41:35;27.13;;;20.02;;
75746;SDS011;70632;52.232;21.038;2023-08-21T03:44:01;26.73;;;20.17;;
75746;SDS011;70632;52.232;21.038;2023-08-21T03:46:26;25.00;;;20.92;;
75746;SDS011;70632;52.232;21.038;2023-08-21T03:48:52;29.58;;;21.48;;
75746;SDS011;70632;52.232;21.038;2023-08-21T03:51:18;26.63;;;20.20;;
75746;SDS011;70632;52.232;21.038;2023-08-21T03:53:43;28.88;;;20.55;;
75746;SDS011;70632;52.232;21.038;2023-08-21T03:56:09;29.08;;;19.80;;
75746;SDS011;70632;52.232;21.038;2023-08-21T03:58:35;27.08;;;18.67;;
75746;SDS011;70632;52.232;21.038;2023-08-21T04:01:01;27.13;;;19.30;;
75746;SDS011;70632;52.232;21.038;2023-08-21T04:03:26;29.10;;;19.27;;
75746;SDS011;70632;52.232;21.038;2023-08-21T04:05:53;25.52;;;19.92;;
75746;SDS011;70632;52.232;21.038;2023-08-21T04:08:19;28.50;;;21.40;;
75746;SDS011;70632;52.232;21.038;2023-08-21T04:10:45;26.52;;;19.77;;
75746;SDS011;70632;52.232;21.038;2023-08-21T04:13:10;24.48;;;18.40;;
75746;SDS011;70632;52.232;21.038;2023-08-21T04:15:36;28.70;;;21.10;;
75746;SDS011;70632;52.232;21.038;2023-08-21T04:18:02;27.80;;;20.90;;
75746;SDS011;70632;52.232;21.038;2023-08-21T04:20:28;30.40;;;21.98;;
75746;SDS011;70632;52.232;21.038;2023-08-21T04:22:54;31.75;;;20.23;;
75746;SDS011;70632;52.232;21.038;2023-08-21T04:25:19;29.88;;;21.48;;
75746;SDS011;70632;52.232;21.038;2023-08-21T04:27:45;24.70;;;19.92;;
75746;SDS011;70632;52.232;21.038;2023-08-21T04:30:11;25.55;;;20.27;;
75746;SDS011;70632;52.232;21.038;2023-08-21T04:32:37;29.75;;;20.67;;
75746;SDS011;70632;52.232;21.038;2023-08-21T04:35:03;27.30;;;20.50;;
75746;SDS011;70632;52.232;21.038;2023-08-21T04:37:30;26.33;;;20.02;;
75746;SDS011;70632;52.232;21.038;2023-08-21T04:39:56;30.98;;;22.45;;
75746;SDS011;70632;52.232;21.038;2023-08-21T04:42:22;30.45;;;21.52;;
75746;SDS011;70632;52.232;21.038;2023-08-21T04:44:48;27.42;;;20.67;;
75746;SDS011;70632;52.232;21.038;2023-08-21T04:47:23;30.75;;;22.88;;
75746;SDS011;70632;52.232;21.038;2023-08-21T04:52:20;39.63;;;22.40;;
75746;SDS011;70632;52.232;21.038;2023-08-21T04:54:49;31.20;;;23.23;;
75746;SDS011;70632;52.232;21.038;2023-08-21T04:57:15;30.85;;;22.42;;
75746;SDS011;70632;52.232;21.038;2023-08-21T04:59:41;27.83;;;21.92;;
75746;SDS011;70632;52.232;21.038;2023-08-21T05:02:07;29.67;;;23.10;;
75746;SDS011;70632;52.232;21.038;2023-08-21T05:04:35;26.90;;;20.88;;
75746;SDS011;70632;52.232;21.038;2023-08-21T05:30:35;33.83;;;22.92;;
75746;SDS011;70632;52.232;21.038;2023-08-21T05:33:02;27.95;;;21.17;;
75746;SDS011;70632;52.232;21.038;2023-08-21T05:35:29;25.33;;;20.20;;
75746;SDS011;70632;52.232;21.038;2023-08-21T05:37:58;27.75;;;20.30;;
75746;SDS011;70632;52.232;21.038;2023-08-21T05:40:24;27.88;;;19.98;;
75746;SDS011;70632;52.232;21.038;2023-08-21T05:42:49;29.30;;;19.92;;
75746;SDS011;70632;52.232;21.038;2023-08-21T05:45:16;26.27;;;20.20;;
75746;SDS011;70632;52.232;21.038;2023-08-21T05:47:41;29.08;;;21.83;;
75746;SDS011;70632;52.232;21.038;2023-08-21T05:50:07;29.83;;;20.13;;
75746;SDS011;70632;52.232;21.038;2023-08-21T05:52:34;28.17;;;21.15;;
75746;SDS011;70632;52.232;21.038;2023-08-21T05:55:00;31.75;;;21.85;;
75746;SDS011;70632;52.232;21.038;2023-08-21T05:57:25;30.02;;;22.42;;
75746;SDS011;70632;52.232;21.038;2023-08-21T05:59:51;27.95;;;21.73;;
75746;SDS011;70632;52.232;21.038;2023-08-21T06:02:17;28.27;;;20.08;;
75746;SDS011;70632;52.232;21.038;2023-08-21T06:04:43;27.83;;;22.02;;
75746;SDS011;70632;52.232;21.038;2023-08-21T06:07:08;28.73;;;21.10;;
75746;SDS011;70632;52.232;21.038;2023-08-21T06:09:35;31.98;;;21.55;;
75746;SDS011;70632;52.232;21.038;2023-08-21T06:12:02;27.92;;;20.60;;
75746;SDS011;70632;52.232;21.038;2023-08-21T06:14:31;27.05;;;20.48;;
75746;SDS011;70632;52.232;21.038;2023-08-21T06:17:00;26.75;;;20.08;;
75746;SDS011;70632;52.232;21.038;2023-08-21T06:19:27;29.80;;;21.48;;
75746;SDS011;70632;52.232;21.038;2023-08-21T06:21:56;27.27;;;20.75;;
75746;SDS011;70632;52.232;21.038;2023-08-21T06:24:22;29.98;;;21.98;;
75746;SDS011;70632;52.232;21.038;2023-08-21T06:26:48;29.02;;;20.75;;
75746;SDS011;70632;52.232;21.038;2023-08-21T06:29:15;30.92;;;23.38;;
75746;SDS011;70632;52.232;21.038;2023-08-21T06:31:40;29.65;;;22.85;;
75746;SDS011;70632;52.232;21.038;2023-08-21T06:34:06;29.83;;;22.35;;
75746;SDS011;70632;52.232;21.038;2023-08-21T06:36:32;35.92;;;24.35;;
75746;SDS011;70632;52.232;21.038;2023-08-21T06:38:57;30.30;;;23.13;;
75746;SDS011;70632;52.232;21.038;2023-08-21T06:41:23;34.58;;;23.52;;
75746;SDS011;70632;52.232;21.038;2023-08-21T06:43:50;34.80;;;25.88;;
75746;SDS011;70632;52.232;21.038;2023-08-21T06:46:16;30.95;;;22.85;;
75746;SDS011;70632;52.232;21.038;2023-08-21T06:48:42;30.88;;;21.90;;
75746;SDS011;70632;52.232;21.038;2023-08-21T06:51:08;28.70;;;21.02;;
75746;SDS011;70632;52.232;21.038;2023-08-21T06:53:37;27.98;;;20.85;;
75746;SDS011;70632;52.232;21.038;2023-08-21T06:56:03;29.23;;;21.02;;
75746;SDS011;70632;52.232;21.038;2023-08-21T06:58:29;25.65;;;20.33;;
75746;SDS011;70632;52.232;21.038;2023-08-21T07:00:54;30.85;;;21.52;;
75746;SDS011;70632;52.232;21.038;2023-08-21T07:03:21;30.27;;;22.05;;
75746;SDS011;70632;52.232;21.038;2023-08-21T07:05:54;31.17;;;21.40;;
75746;SDS011;70632;52.232;21.038;2023-08-21T07:08:24;27.20;;;21.10;;
75746;SDS011;70632;52.232;21.038;2023-08-21T07:10:50;31.75;;;21.20;;
75746;SDS011;70632;52.232;21.038;2023-08-21T07:13:16;26.73;;;20.88;;
75746;SDS011;70632;52.232;21.038;2023-08-21T07:15:42;27.42;;;19.85;;
75746;SDS011;70632;52.232;21.038;2023-08-21T07:18:08;30.60;;;22.13;;
75746;SDS011;70632;52.232;21.038;2023-08-21T07:20:33;28.48;;;21.48;;
75746;SDS011;70632;52.232;21.038;2023-08-21T07:23:00;31.17;;;21.35;;
75746;SDS011;70632;52.232;21.038;2023-08-21T07:25:26;27.15;;;21.13;;
75746;SDS011;70632;52.232;21.038;2023-08-21T07:27:52;29.30;;;22.40;;
75746;SDS011;70632;52.232;21.038;2023-08-21T07:30:20;33.65;;;21.65;;
75746;SDS011;70632;52.232;21.038;2023-08-21T07:32:47;31.27;;;21.75;;
75746;SDS011;70632;52.232;21.038;2023-08-21T07:35:13;28.98;;;20.83;;
75746;SDS011;70632;52.232;21.038;2023-08-21T07:37:39;32.95;;;23.40;;
75746;SDS011;70632;52.232;21.038;2023-08-21T07:40:08;34.17;;;23.80;;
75746;SDS011;70632;52.232;21.038;2023-08-21T07:42:34;30.55;;;21.55;;
75746;SDS011;70632;52.232;21.038;2023-08-21T07:45:00;32.42;;;23.02;;
75746;SDS011;70632;52.232;21.038;2023-08-21T07:47:29;26.35;;;20.38;;
75746;SDS011;70632;52.232;21.038;2023-08-21T07:49:55;30.33;;;21.90;;
75746;SDS011;70632;52.232;21.038;2023-08-21T07:52:22;29.48;;;22.33;;
75746;SDS011;70632;52.232;21.038;2023-08-21T07:54:51;29.25;;;21.88;;
75746;SDS011;70632;52.232;21.038;2023-08-21T07:57:18;28.92;;;21.60;;
75746;SDS011;70632;52.232;21.038;2023-08-21T07:59:44;27.95;;;20.75;;
75746;SDS011;70632;52.232;21.038;2023-08-21T08:02:10;29.73;;;19.88;;
75746;SDS011;70632;52.232;21.038;2023-08-21T08:04:38;28.02;;;19.85;;
75746;SDS011;70632;52.232;21.038;2023-08-21T08:07:04;28.17;;;21.90;;
75746;SDS011;70632;52.232;21.038;2023-08-21T08:09:29;24.63;;;19.50;;
75746;SDS011;70632;52.232;21.038;2023-08-21T08:11:56;26.77;;;20.27;;
75746;SDS011;70632;52.232;21.038;2023-08-21T08:14:21;31.02;;;22.30;;
75746;SDS011;70632;52.232;21.038;2023-08-21T08:16:47;27.02;;;20.05;;
75746;SDS011;70632;52.232;21.038;2023-08-21T08:19:13;27.63;;;21.45;;
75746;SDS011;70632;52.232;21.038;2023-08-21T08:21:38;28.65;;;20.58;;
75746;SDS011;70632;52.232;21.038;2023-08-21T08:24:04;24.95;;;19.30;;
75746;SDS011;70632;52.232;21.038;2023-08-21T08:26:31;23.70;;;19.23;;
75746;SDS011;70632;52.232;21.038;2023-08-21T08:28:56;25.15;;;21.25;;
75746;SDS011;70632;52.232;21.038;2023-08-21T08:31:22;24.67;;;18.98;;
75746;SDS011;70632;52.232;21.038;2023-08-21T08:33:49;28.20;;;20.17;;
75746;SDS011;70632;52.232;21.038;2023-08-21T08:36:15;23.40;;;19.20;;
75746;SDS011;70632;52.232;21.038;2023-08-21T08:38:41;23.58;;;19.17;;
75746;SDS011;70632;52.232;21.038;2023-08-21T08:41:09;23.67;;;17.65;;
75746;SDS011;70632;52.232;21.038;2023-08-21T08:43:38;22.15;;;17.48;;
75746;SDS011;70632;52.232;21.038;2023-08-21T08:46:06;20.80;;;18.45;;
75746;SDS011;70632;52.232;21.038;2023-08-21T08:48:33;21.88;;;18.02;;
75746;SDS011;70632;52.232;21.038;2023-08-21T08:51:01;22.42;;;18.50;;
75746;SDS011;70632;52.232;21.038;2023-08-21T08:53:29;19.95;;;16.25;;
75746;SDS011;70632;52.232;21.038;2023-08-21T08:55:55;20.27;;;17.17;;
75746;SDS011;70632;52.232;21.038;2023-08-21T08:58:22;18.95;;;16.25;;
75746;SDS011;70632;52.232;21.038;2023-08-21T09:00:48;20.77;;;15.85;;
75746;SDS011;70632;52.232;21.038;2023-08-21T09:03:14;17.13;;;14.55;;
75746;SDS011;70632;52.232;21.038;2023-08-21T09:05:41;16.70;;;14.93;;
75746;SDS011;70632;52.232;21.038;2023-08-21T09:08:11;16.00;;;14.13;;
75746;SDS011;70632;52.232;21.038;2023-08-21T09:10:38;20.55;;;14.38;;
75746;SDS011;70632;52.232;21.038;2023-08-21T09:13:38;15.95;;;13.38;;
75746;SDS011;70632;52.232;21.038;2023-08-21T09:15:57;15.25;;;12.88;;
75746;SDS011;70632;52.232;21.038;2023-08-21T09:18:23;14.02;;;11.90;;
75746;SDS011;70632;52.232;21.038;2023-08-21T09:20:49;16.27;;;12.70;;
75746;SDS011;70632;52.232;21.038;2023-08-21T09:23:15;16.23;;;14.55;;
75746;SDS011;70632;52.232;21.038;2023-08-21T09:28:09;14.88;;;13.38;;
75746;SDS011;70632;52.232;21.038;2023-08-21T09:30:45;17.92;;;12.75;;
75746;SDS011;70632;52.232;21.038;2023-08-21T09:33:12;13.05;;;11.43;;
75746;SDS011;70632;52.232;21.038;2023-08-21T09:35:38;13.10;;;11.75;;
75746;SDS011;70632;52.232;21.038;2023-08-21T09:38:07;13.70;;;12.27;;
75746;SDS011;70632;52.232;21.038;2023-08-21T09:40:33;13.25;;;11.57;;
75746;SDS011;70632;52.232;21.038;2023-08-21T09:42:59;14.05;;;11.98;;
75746;SDS011;70632;52.232;21.038;2023-08-21T09:45:25;14.13;;;11.77;;
75746;SDS011;70632;52.232;21.038;2023-08-21T09:47:53;15.93;;;11.38;;
75746;SDS011;70632;52.232;21.038;2023-08-21T09:50:21;12.88;;;11.57;;
75746;SDS011;70632;52.232;21.038;2023-08-21T09:52:47;13.25;;;10.57;;
75746;SDS011;70632;52.232;21.038;2023-08-21T09:55:14;13.10;;;11.13;;
75746;SDS011;70632;52.232;21.038;2023-08-21T09:57:40;12.88;;;11.25;;
75746;SDS011;70632;52.232;21.038;2023-08-21T10:00:07;11.40;;;10.32;;
75746;SDS011;70632;52.232;21.038;2023-08-21T10:02:43;12.63;;;10.35;;
75746;SDS011;70632;52.232;21.038;2023-08-21T10:05:15;11.75;;;9.77;;
75746;SDS011;70632;52.232;21.038;2023-08-21T10:07:42;11.18;;;9.93;;
75746;SDS011;70632;52.232;21.038;2023-08-21T10:10:10;10.00;;;8.48;;
75746;SDS011;70632;52.232;21.038;2023-08-21T10:12:37;11.27;;;8.38;;
75746;SDS011;70632;52.232;21.038;2023-08-21T10:15:03;11.50;;;8.88;;
75746;SDS011;70632;52.232;21.038;2023-08-21T10:17:30;11.60;;;7.03;;
75746;SDS011;70632;52.232;21.038;2023-08-21T10:20:02;8.10;;;7.30;;
75746;SDS011;70632;52.232;21.038;2023-08-21T10:22:38;8.02;;;6.63;;
75746;SDS011;70632;52.232;21.038;2023-08-21T10:25:15;8.02;;;6.47;;
75746;SDS011;70632;52.232;21.038;2023-08-21T10:27:49;7.03;;;5.72;;
75746;SDS011;70632;52.232;21.038;2023-08-21T10:30:26;6.15;;;5.50;;
75746;SDS011;70632;52.232;21.038;2023-08-21T10:32:54;7.13;;;6.18;;
75746;SDS011;70632;52.232;21.038;2023-08-21T10:40:36;7.65;;;6.85;;
75746;SDS011;70632;52.232;21.038;2023-08-21T10:43:03;8.90;;;6.18;;
75746;SDS011;70632;52.232;21.038;2023-08-21T10:45:29;7.57;;;5.68;;
75746;SDS011;70632;52.232;21.038;2023-08-21T10:47:56;5.90;;;5.30;;
75746;SDS011;70632;52.232;21.038;2023-08-21T10:50:23;7.20;;;5.60;;
75746;SDS011;70632;52.232;21.038;2023-08-21T10:52:48;8.90;;;7.30;;
75746;SDS011;70632;52.232;21.038;2023-08-21T10:55:17;7.30;;;6.35;;
75746;SDS011;70632;52.232;21.038;2023-08-21T10:57:45;7.50;;;6.78;;
75746;SDS011;70632;52.232;21.038;2023-08-21T11:00:13;9.07;;;6.80;;
75746;SDS011;70632;52.232;21.038;2023-08-21T11:02:49;10.05;;;6.22;;
75746;SDS011;70632;52.232;21.038;2023-08-21T11:05:16;7.38;;;5.95;;
75746;SDS011;70632;52.232;21.038;2023-08-21T11:07:42;7.70;;;6.47;;
75746;SDS011;70632;52.232;21.038;2023-08-21T11:10:17;11.57;;;7.18;;
75746;SDS011;70632;52.232;21.038;2023-08-21T11:12:53;9.73;;;6.88;;
75746;SDS011;70632;52.232;21.038;2023-08-21T11:15:27;8.23;;;6.95;;
75746;SDS011;70632;52.232;21.038;2023-08-21T11:17:54;9.75;;;6.82;;
75746;SDS011;70632;52.232;21.038;2023-08-21T11:20:22;9.77;;;7.53;;
75746;SDS011;70632;52.232;21.038;2023-08-21T11:22:48;9.27;;;6.38;;
75746;SDS011;70632;52.232;21.038;2023-08-21T11:25:15;9.85;;;7.50;;
75746;SDS011;70632;52.232;21.038;2023-08-21T11:27:43;13.93;;;7.32;;
75746;SDS011;70632;52.232;21.038;2023-08-21T11:30:10;9.10;;;6.22;;
75746;SDS011;70632;52.232;21.038;2023-08-21T11:32:36;8.23;;;6.18;;
75746;SDS011;70632;52.232;21.038;2023-08-21T11:35:02;9.60;;;6.65;;
75746;SDS011;70632;52.232;21.038;2023-08-21T11:37:28;9.85;;;6.13;;
75746;SDS011;70632;52.232;21.038;2023-08-21T11:39:58;9.15;;;6.53;;
75746;SDS011;70632;52.232;21.038;2023-08-21T11:42:33;9.05;;;6.10;;
75746;SDS011;70632;52.232;21.038;2023-08-21T11:45:00;8.98;;;6.13;;
75746;SDS011;70632;52.232;21.038;2023-08-21T11:47:30;10.88;;;6.68;;
75746;SDS011;70632;52.232;21.038;2023-08-21T11:50:06;9.07;;;6.80;;
75746;SDS011;70632;52.232;21.038;2023-08-21T11:55:06;9.68;;;6.25;;
75746;SDS011;70632;52.232;21.038;2023-08-21T11:57:33;6.55;;;4.85;;
75746;SDS011;70632;52.232;21.038;2023-08-21T11:59:59;8.82;;;4.65;;
75746;SDS011;70632;52.232;21.038;2023-08-21T12:02:27;6.85;;;4.75;;
75746;SDS011;70632;52.232;21.038;2023-08-21T12:07:30;7.50;;;5.35;;
75746;SDS011;70632;52.232;21.038;2023-08-21T12:09:56;9.05;;;4.57;;
75746;SDS011;70632;52.232;21.038;2023-08-21T12:12:22;6.57;;;4.78;;
75746;SDS011;70632;52.232;21.038;2023-08-21T12:14:48;9.45;;;4.72;;
75746;SDS011;70632;52.232;21.038;2023-08-21T12:17:14;5.50;;;4.47;;
75746;SDS011;70632;52.232;21.038;2023-08-21T12:19:40;6.75;;;4.85;;
75746;SDS011;70632;52.232;21.038;2023-08-21T12:22:07;9.27;;;5.32;;
75746;SDS011;70632;52.232;21.038;2023-08-21T12:24:33;5.90;;;4.85;;
75746;SDS011;70632;52.232;21.038;2023-08-21T12:26:59;7.18;;;5.68;;
75746;SDS011;70632;52.232;21.038;2023-08-21T12:29:25;7.80;;;5.22;;
75746;SDS011;70632;52.232;21.038;2023-08-21T12:31:51;8.93;;;5.05;;
75746;SDS011;70632;52.232;21.038;2023-08-21T12:34:16;8.60;;;4.90;;
75746;SDS011;70632;52.232;21.038;2023-08-21T12:36:42;9.82;;;5.47;;
75746;SDS011;70632;52.232;21.038;2023-08-21T12:39:08;7.30;;;4.82;;
75746;SDS011;70632;52.232;21.038;2023-08-21T12:41:34;12.13;;;5.28;;
75746;SDS011;70632;52.232;21.038;2023-08-21T12:44:00;8.35;;;4.85;;
75746;SDS011;70632;52.232;21.038;2023-08-21T12:46:27;8.05;;;5.05;;
75746;SDS011;70632;52.232;21.038;2023-08-21T12:48:57;9.05;;;5.10;;
75746;SDS011;70632;52.232;21.038;2023-08-21T12:51:24;9.05;;;4.40;;
75746;SDS011;70632;52.232;21.038;2023-08-21T12:53:50;8.77;;;5.65;;
75746;SDS011;70632;52.232;21.038;2023-08-21T12:56:16;11.82;;;5.20;;
75746;SDS011;70632;52.232;21.038;2023-08-21T12:58:42;7.35;;;3.97;;
75746;SDS011;70632;52.232;21.038;2023-08-21T13:01:07;7.72;;;4.47;;
75746;SDS011;70632;52.232;21.038;2023-08-21T13:03:35;7.65;;;4.20;;
75746;SDS011;70632;52.232;21.038;2023-08-21T13:06:01;5.82;;;3.50;;
75746;SDS011;70632;52.232;21.038;2023-08-21T13:08:26;6.80;;;3.92;;
75746;SDS011;70632;52.232;21.038;2023-08-21T13:10:52;7.13;;;4.40;;
75746;SDS011;70632;52.232;21.038;2023-08-21T13:13:18;7.95;;;4.25;;
75746;SDS011;70632;52.232;21.038;2023-08-21T13:15:43;5.07;;;3.67;;
75746;SDS011;70632;52.232;21.038;2023-08-21T13:18:12;7.65;;;3.90;;
75746;SDS011;70632;52.232;21.038;2023-08-21T13:20:43;7.80;;;3.97;;
75746;SDS011;70632;52.232;21.038;2023-08-21T13:23:08;8.85;;;3.53;;
75746;SDS011;70632;52.232;21.038;2023-08-21T13:25:34;6.57;;;4.13;;
75746;SDS011;70632;52.232;21.038;2023-08-21T13:28:00;12.65;;;5.43;;
75746;SDS011;70632;52.232;21.038;2023-08-21T13:30:28;6.45;;;3.58;;
75746;SDS011;70632;52.232;21.038;2023-08-21T13:32:55;8.27;;;3.72;;
75746;SDS011;70632;52.232;21.038;2023-08-21T13:35:21;6.97;;;3.90;;
75746;SDS011;70632;52.232;21.038;2023-08-21T13:37:48;6.38;;;3.40;;
75746;SDS011;70632;52.232;21.038;2023-08-21T13:40:15;5.80;;;3.75;;
75746;SDS011;70632;52.232;21.038;2023-08-21T13:42:42;4.82;;;3.50;;
75746;SDS011;70632;52.232;21.038;2023-08-21T13:45:10;4.68;;;3.08;;
75746;SDS011;70632;52.232;21.038;2023-08-21T13:47:47;5.10;;;3.55;;
75746;SDS011;70632;52.232;21.038;2023-08-21T13:50:14;5.90;;;3.70;;
75746;SDS011;70632;52.232;21.038;2023-08-21T13:52:43;7.95;;;3.60;;
75746;SDS011;70632;52.232;21.038;2023-08-21T13:55:09;6.63;;;3.25;;
75746;SDS011;70632;52.232;21.038;2023-08-21T13:57:36;4.47;;;2.92;;
75746;SDS011;70632;52.232;21.038;2023-08-21T14:00:03;5.28;;;3.55;;
75746;SDS011;70632;52.232;21.038;2023-08-21T14:02:36;9.07;;;4.30;;
75746;SDS011;70632;52.232;21.038;2023-08-21T14:05:02;8.55;;;3.83;;
75746;SDS011;70632;52.232;21.038;2023-08-21T14:09:56;6.85;;;3.10;;
75746;SDS011;70632;52.232;21.038;2023-08-21T14:12:22;6.50;;;3.50;;
75746;SDS011;70632;52.232;21.038;2023-08-21T14:14:48;6.82;;;3.35;;
75746;SDS011;70632;52.232;21.038;2023-08-21T14:17:14;8.27;;;3.05;;
75746;SDS011;70632;52.232;21.038;2023-08-21T14:19:40;8.27;;;3.38;;
75746;SDS011;70632;52.232;21.038;2023-08-21T14:22:06;7.20;;;3.22;;
75746;SDS011;70632;52.232;21.038;2023-08-21T14:24:32;4.75;;;3.13;;
75746;SDS011;70632;52.232;21.038;2023-08-21T14:26:58;5.68;;;2.80;;
75746;SDS011;70632;52.232;21.038;2023-08-21T14:29:23;8.48;;;3.15;;
75746;SDS011;70632;52.232;21.038;2023-08-21T14:31:49;6.72;;;3.20;;
75746;SDS011;70632;52.232;21.038;2023-08-21T14:34:18;5.22;;;3.95;;
75746;SDS011;70632;52.232;21.038;2023-08-21T14:36:46;4.22;;;3.10;;
75746;SDS011;70632;52.232;21.038;2023-08-21T14:39:13;5.95;;;3.00;;
75746;SDS011;70632;52.232;21.038;2023-08-21T14:41:41;4.82;;;3.25;;
75746;SDS011;70632;52.232;21.038;2023-08-21T14:44:06;8.60;;;3.35;;
75746;SDS011;70632;52.232;21.038;2023-08-21T14:46:32;8.63;;;3.00;;
75746;SDS011;70632;52.232;21.038;2023-08-21T14:49:01;5.18;;;3.22;;
75746;SDS011;70632;52.232;21.038;2023-08-21T14:51:27;5.65;;;3.55;;
75746;SDS011;70632;52.232;21.038;2023-08-21T14:53:52;8.02;;;3.47;;
75746;SDS011;70632;52.232;21.038;2023-08-21T14:56:19;4.63;;;3.10;;
75746;SDS011;70632;52.232;21.038;2023-08-21T14:58:45;4.18;;;3.15;;
75746;SDS011;70632;52.232;21.038;2023-08-21T15:01:11;6.65;;;3.17;;
75746;SDS011;70632;52.232;21.038;2023-08-21T15:03:37;5.32;;;3.08;;